createdAt,value
2022-12-19T00:02:26.563Z,101391.19
2022-12-19T00:04:53.218Z,101380.88
2022-12-19T00:07:22.909Z,101385.28
2022-12-19T00:09:49.422Z,101377.66
2022-12-19T00:12:19.374Z,101376.94
2022-12-19T00:14:47.228Z,101377.16
2022-12-19T00:17:14.272Z,101377.25
2022-12-19T00:19:40.812Z,101381.63
2022-12-19T00:22:11.204Z,101384.88
2022-12-19T00:24:37.980Z,101378.56
2022-12-19T00:27:04.474Z,101386.25
2022-12-19T00:29:31.115Z,101377.66
2022-12-19T00:31:58.974Z,101370.63
2022-12-19T00:34:25.589Z,101369.94
2022-12-19T00:36:52.120Z,101365.81
2022-12-19T00:39:18.711Z,101363.41
2022-12-19T00:41:45.689Z,101361.88
2022-12-19T00:44:15.453Z,101352.59
2022-12-19T00:46:42.322Z,101358.69
2022-12-19T00:49:08.970Z,101356.16
2022-12-19T00:51:37.201Z,101345.06
2022-12-19T00:54:05.366Z,101333.94
2022-12-19T00:56:37.719Z,101324.50
2022-12-19T00:59:06.883Z,101331.53
2022-12-19T01:01:37.559Z,101324.78
2022-12-19T01:06:53.516Z,101328.56
2022-12-19T01:09:21.769Z,101315.53
2022-12-19T01:12:08.278Z,101313.84
2022-12-19T01:14:35.212Z,101314.03
2022-12-19T01:17:01.810Z,101317.72
2022-12-19T01:19:28.804Z,101319.63
2022-12-19T01:21:55.421Z,101317.09
2022-12-19T01:24:22.137Z,101323.00
2022-12-19T01:26:49.761Z,101331.47
2022-12-19T01:29:16.480Z,101337.69
2022-12-19T01:31:43.175Z,101333.44
2022-12-19T01:34:10.065Z,101336.25
2022-12-19T01:36:39.685Z,101340.84
2022-12-19T01:39:06.932Z,101342.81
2022-12-19T01:41:33.435Z,101331.78
2022-12-19T01:44:03.366Z,101328.66
2022-12-19T01:46:35.503Z,101320.91
2022-12-19T01:49:03.290Z,101322.09
2022-12-19T01:51:41.422Z,101322.38
2022-12-19T01:54:11.455Z,101323.28
2022-12-19T01:56:45.462Z,101323.47
2022-12-19T01:59:45.038Z,101317.56
2022-12-19T02:02:17.608Z,101309.97
2022-12-19T02:04:46.186Z,101306.59
2022-12-19T02:07:15.138Z,101304.06
2022-12-19T02:09:45.144Z,101295.41
2022-12-19T02:12:13.471Z,101299.72
2022-12-19T02:14:41.717Z,101301.47
2022-12-19T02:17:21.011Z,101309.44
2022-12-19T02:19:50.681Z,101305.31
2022-12-19T02:22:41.662Z,101298.56
2022-12-19T02:25:34.477Z,101304.94
2022-12-19T02:28:26.174Z,101290.22
2022-12-19T02:31:13.821Z,101285.16
2022-12-19T02:33:53.267Z,101289.59
2022-12-19T02:36:50.844Z,101266.19
2022-12-19T02:39:26.110Z,101265.38
2022-12-19T02:41:57.617Z,101265.47
2022-12-19T02:44:35.726Z,101264.81
2022-12-19T02:47:04.970Z,101268.41
2022-12-19T02:49:35.551Z,101263.41
2022-12-19T02:52:20.926Z,101261.03
2022-12-19T02:54:53.775Z,101261.22
2022-12-19T02:57:28.117Z,101261.41
2022-12-19T03:00:07.685Z,101260.66
2022-12-19T03:03:06.384Z,101257.41
2022-12-19T03:05:39.469Z,101252.34
2022-12-19T03:08:19.717Z,101257.69
2022-12-19T03:10:58.913Z,101248.25
2022-12-19T03:14:00.738Z,101247.50
2022-12-19T03:16:27.539Z,101255.47
2022-12-19T03:18:54.917Z,101250.47
2022-12-19T03:21:35.408Z,101238.41
2022-12-19T03:24:04.123Z,101225.34
2022-12-19T03:26:38.234Z,101223.53
2022-12-19T03:29:18.123Z,101219.94
2022-12-19T03:31:46.563Z,101221.75
2022-12-19T03:34:25.342Z,101199.06
2022-12-19T03:36:57.024Z,101213.09
2022-12-19T03:39:25.556Z,101208.78
2022-12-19T03:42:12.009Z,101207.00
2022-12-19T03:44:42.300Z,101206.09
2022-12-19T03:47:21.048Z,101203.56
2022-12-19T03:49:48.808Z,101218.31
2022-12-19T03:52:21.362Z,101225.34
2022-12-19T03:55:02.166Z,101222.06
2022-12-19T03:57:35.944Z,101215.22
2022-12-19T04:00:08.222Z,101210.19
2022-12-19T04:02:47.438Z,101201.53
2022-12-19T04:05:28.046Z,101198.13
2022-12-19T04:08:00.930Z,101193.69
2022-12-19T04:10:28.903Z,101199.75
2022-12-19T04:13:12.013Z,101200.53
2022-12-19T04:16:20.580Z,101196.16
2022-12-19T04:18:55.022Z,101196.16
2022-12-19T04:21:35.205Z,101190.03
2022-12-19T04:24:08.133Z,101186.41
2022-12-19T04:26:37.379Z,101184.72
2022-12-19T04:29:06.488Z,101185.50
2022-12-19T04:31:34.383Z,101173.38
2022-12-19T04:34:01.014Z,101169.84
2022-12-19T04:36:27.671Z,101171.66
2022-12-19T04:38:54.423Z,101164.63
2022-12-19T04:41:21.821Z,101150.88
2022-12-19T04:43:48.429Z,101153.47
2022-12-19T04:46:15.403Z,101153.47
2022-12-19T04:48:41.974Z,101147.34
2022-12-19T04:51:08.771Z,101150.78
2022-12-19T04:53:35.436Z,101136.75
2022-12-19T04:56:03.798Z,101128.91
2022-12-19T04:58:30.383Z,101129.81
2022-12-19T05:01:01.576Z,101122.06
2022-12-19T05:03:28.219Z,101111.69
2022-12-19T05:06:03.554Z,101109.16
2022-12-19T05:08:30.195Z,101098.81
2022-12-19T05:11:00.774Z,101096.19
2022-12-19T05:13:28.332Z,101097.09
2022-12-19T05:16:03.588Z,101090.25
2022-12-19T05:18:30.850Z,101089.59
2022-12-19T05:20:57.423Z,101088.75
2022-12-19T05:23:24.079Z,101090.72
2022-12-19T05:25:50.669Z,101088.34
2022-12-19T05:28:17.745Z,101076.38
2022-12-19T05:30:47.856Z,101079.28
2022-12-19T05:33:18.470Z,101083.84
2022-12-19T05:35:45.032Z,101079.81
2022-12-19T05:38:11.526Z,101080.81
2022-12-19T05:40:38.022Z,101083.59
2022-12-19T05:43:04.832Z,101077.53
2022-12-19T05:45:31.417Z,101075.06
2022-12-19T05:48:01.305Z,101070.75
2022-12-19T05:50:28.340Z,101065.59
2022-12-19T05:52:54.947Z,101062.25
2022-12-19T05:55:21.532Z,101045.75
2022-12-19T05:57:48.058Z,101044.13
2022-12-19T06:00:16.310Z,101049.34
2022-12-19T06:02:42.890Z,101038.09
2022-12-19T06:05:09.521Z,101031.97
2022-12-19T06:07:36.089Z,101041.56
2022-12-19T06:10:02.963Z,101031.97
2022-12-19T06:12:29.445Z,101035.47
2022-12-19T06:14:55.959Z,101032.03
2022-12-19T06:17:22.546Z,101033.84
2022-12-19T06:19:49.139Z,101038.31
2022-12-19T06:22:15.771Z,101035.75
2022-12-19T06:24:42.334Z,101025.63
2022-12-19T06:27:08.852Z,101031.00
2022-12-19T06:29:35.360Z,101044.31
2022-12-19T06:32:02.045Z,101040.19
2022-12-19T06:35:02.243Z,101029.06
2022-12-19T06:37:15.772Z,101021.38
2022-12-19T06:39:43.169Z,101022.47
2022-12-19T06:42:25.675Z,101014.94
2022-12-19T06:44:55.909Z,101003.03
2022-12-19T06:47:24.074Z,101014.53
2022-12-19T06:49:50.878Z,101023.59
2022-12-19T06:52:17.942Z,101021.19
2022-12-19T06:54:44.609Z,101006.53
2022-12-19T06:57:11.189Z,101006.81
2022-12-19T06:59:37.733Z,100997.31
2022-12-19T07:02:22.980Z,101000.06
2022-12-19T07:04:54.724Z,101001.19
2022-12-19T07:07:21.596Z,101001.41
2022-12-19T07:09:48.848Z,100999.94
2022-12-19T07:12:15.553Z,100998.59
2022-12-19T07:14:42.232Z,101000.66
2022-12-19T07:17:08.936Z,100991.16
2022-12-19T07:19:35.981Z,100998.09
2022-12-19T07:22:04.192Z,100986.88
2022-12-19T07:24:31.520Z,100991.28
2022-12-19T07:26:58.535Z,100993.78
2022-12-19T07:29:25.566Z,100986.72
2022-12-19T07:31:52.491Z,100988.53
2022-12-19T07:34:19.233Z,100990.31
2022-12-19T07:36:46.138Z,100992.19
2022-12-19T07:39:12.662Z,100990.59
2022-12-19T07:41:39.502Z,101006.50
2022-12-19T07:44:07.556Z,101001.41
2022-12-19T07:46:34.455Z,101004.09
2022-12-19T07:49:01.005Z,101007.53
2022-12-19T07:51:28.267Z,100999.84
2022-12-19T07:53:55.041Z,101001.78
2022-12-19T07:56:21.977Z,101001.03
2022-12-19T07:58:48.972Z,101007.47
2022-12-19T08:01:15.782Z,101003.31
2022-12-19T08:03:42.414Z,101000.88
2022-12-19T08:06:09.297Z,101001.94
2022-12-19T08:08:37.569Z,101003.91
2022-12-19T08:11:16.987Z,101002.31
2022-12-19T08:13:46.765Z,101005.16
2022-12-19T08:16:15.016Z,101013.19
2022-12-19T08:18:41.602Z,101005.53
2022-12-19T08:21:09.246Z,101014.38
2022-12-19T08:23:36.289Z,101010.16
2022-12-19T08:26:05.816Z,101009.31
2022-12-19T08:28:34.033Z,100999.84
2022-12-19T08:31:10.391Z,101006.03
2022-12-19T08:33:37.415Z,101008.72
2022-12-19T08:36:09.750Z,101008.72
2022-12-19T08:38:37.403Z,101014.06
2022-12-19T08:41:04.299Z,100998.38
2022-12-19T08:43:31.440Z,101001.19
2022-12-19T08:46:01.297Z,100990.69
2022-12-19T08:48:28.050Z,100993.38
2022-12-19T08:50:58.127Z,100989.94
2022-12-19T08:53:27.273Z,100994.50
2022-12-19T08:55:56.405Z,100985.84
2022-12-19T08:58:24.068Z,100982.25
2022-12-19T09:00:57.610Z,100991.09
2022-12-19T09:03:32.608Z,100979.78
2022-12-19T09:06:19.295Z,100981.56
2022-12-19T09:08:46.771Z,100973.75
2022-12-19T09:11:18.309Z,100973.84
2022-12-19T09:13:45.995Z,100974.75
2022-12-19T09:16:21.129Z,100970.47
2022-12-19T09:18:49.767Z,100974.16
2022-12-19T09:21:17.653Z,100972.41
2022-12-19T09:23:48.459Z,100965.38
2022-12-19T09:26:16.890Z,100976.78
2022-12-19T09:28:43.501Z,100971.88
2022-12-19T09:31:16.152Z,100967.28
2022-12-19T09:33:43.991Z,100961.84
2022-12-19T09:36:15.887Z,100953.47
2022-12-19T09:38:42.783Z,100954.16
2022-12-19T09:41:46.991Z,100953.09
2022-12-19T09:44:18.803Z,100949.59
2022-12-19T09:46:48.953Z,100946.06
2022-12-19T09:49:26.958Z,100953.94
2022-12-19T09:51:59.231Z,100942.66
2022-12-19T09:54:41.518Z,100937.47
2022-12-19T09:57:29.876Z,100939.31
2022-12-19T10:00:02.065Z,100929.69
2022-12-19T10:02:41.771Z,100921.13
2022-12-19T10:05:37.653Z,100928.28
2022-12-19T10:08:17.250Z,100938.09
2022-12-19T10:12:39.583Z,100923.34
2022-12-19T10:13:54.113Z,100919.09
2022-12-19T10:16:20.707Z,100910.50
2022-12-19T10:19:00.372Z,100917.59
2022-12-19T10:22:17.648Z,100915.97
2022-12-19T10:24:59.559Z,100910.88
2022-12-19T10:27:39.136Z,100912.72
2022-12-19T10:30:26.236Z,100907.59
2022-12-19T10:33:01.194Z,100907.69
2022-12-19T10:35:33.736Z,100902.78
2022-12-19T10:38:11.961Z,100895.84
2022-12-19T10:40:47.792Z,100895.03
2022-12-19T10:43:50.228Z,100892.34
2022-12-19T10:46:28.917Z,100892.53
2022-12-19T10:48:55.489Z,100889.00
2022-12-19T10:51:27.989Z,100879.41
2022-12-19T10:54:01.339Z,100877.72
2022-12-19T10:56:37.039Z,100876.06
2022-12-19T10:59:04.915Z,100870.06
2022-12-19T11:01:38.675Z,100870.06
2022-12-19T11:04:15.336Z,100867.56
2022-12-19T11:07:10.753Z,100862.47
2022-12-19T11:09:44.546Z,100855.47
2022-12-19T11:16:02.484Z,100851.09
2022-12-19T11:17:32.552Z,100846.50
2022-12-19T11:25:53.777Z,100834.06
2022-12-19T11:29:32.361Z,100839.31
2022-12-19T11:29:34.559Z,100827.91
2022-12-19T11:30:07.050Z,100827.00
2022-12-19T11:33:18.501Z,100819.13
2022-12-19T11:35:58.521Z,100818.34
2022-12-19T11:38:32.764Z,100812.28
2022-12-19T11:41:09.729Z,100816.81
2022-12-19T11:43:45.497Z,100810.81
2022-12-19T11:46:33.205Z,100809.22
2022-12-19T11:49:26.403Z,100811.97
2022-12-19T11:52:54.330Z,100809.44
2022-12-19T11:55:40.216Z,100803.47
2022-12-19T11:58:12.307Z,100808.81
2022-12-19T12:01:23.992Z,100801.03
2022-12-19T12:04:18.277Z,100800.28
2022-12-19T12:06:53.425Z,100806.56
2022-12-19T12:13:35.558Z,100804.97
2022-12-19T12:18:39.870Z,100801.69
2022-12-19T12:27:04.795Z,100790.47
2022-12-19T12:30:59.650Z,100793.22
2022-12-19T12:31:39.144Z,100795.09
2022-12-19T12:31:45.129Z,100793.44
2022-12-19T12:32:06.315Z,100796.13
2022-12-19T12:35:09.088Z,100792.69
2022-12-19T12:35:52.126Z,100789.28
2022-12-19T12:39:38.008Z,100783.25
2022-12-19T12:42:42.220Z,100786.72
2022-12-19T12:45:47.335Z,100775.28
2022-12-19T12:48:42.138Z,100772.72
2022-12-19T12:51:11.266Z,100774.59
2022-12-19T12:53:42.801Z,100778.25
2022-12-19T12:56:13.771Z,100774.75
2022-12-19T12:58:54.282Z,100780.13
2022-12-19T13:01:33.427Z,100772.25
2022-12-19T13:04:12.441Z,100773.22
2022-12-19T13:07:17.552Z,100774.16
2022-12-19T13:09:44.569Z,100769.75
2022-12-19T13:12:46.523Z,100775.03
2022-12-19T13:15:22.271Z,100768.03
2022-12-19T13:17:49.407Z,100754.91
2022-12-19T13:20:19.168Z,100765.31
2022-12-19T13:22:58.798Z,100766.16
2022-12-19T13:25:34.702Z,100759.16
2022-12-19T13:28:01.652Z,100761.81
2022-12-19T13:31:02.439Z,100763.63
2022-12-19T13:33:20.168Z,100761.78
2022-12-19T13:39:22.663Z,100774.94
2022-12-19T13:40:00.501Z,100760.84
2022-12-19T13:42:00.964Z,100768.84
2022-12-19T13:44:30.578Z,100769.00
2022-12-19T13:46:57.424Z,100758.63
2022-12-19T13:49:32.929Z,100760.34
2022-12-19T13:52:02.905Z,100759.56
2022-12-19T13:54:34.718Z,100765.66
2022-12-19T13:57:09.234Z,100775.47
2022-12-19T13:59:40.080Z,100776.56
2022-12-19T14:02:31.366Z,100785.44
2022-12-19T14:04:59.220Z,100782.78
2022-12-19T14:07:36.859Z,100756.53
2022-12-19T14:11:38.753Z,100764.47
2022-12-19T14:14:00.503Z,100763.50
2022-12-19T14:16:17.357Z,100770.50
2022-12-19T14:18:50.426Z,100783.59
2022-12-19T14:22:04.060Z,100777.34
2022-12-19T14:24:15.521Z,100786.00
2022-12-19T14:28:23.736Z,100776.28
2022-12-19T14:30:30.657Z,100782.28
2022-12-19T14:33:47.185Z,100785.75
2022-12-19T14:36:08.363Z,100779.53
2022-12-19T14:39:19.619Z,100776.75
2022-12-19T14:41:39.315Z,100780.22
2022-12-19T14:54:01.421Z,100774.69
2022-12-19T14:54:06.398Z,100781.91
2022-12-19T14:54:16.119Z,100783.50
2022-12-19T14:54:21.295Z,100777.28
2022-12-19T14:56:13.604Z,100779.88
2022-12-19T14:58:54.942Z,100780.81
2022-12-19T15:01:24.133Z,100776.38
2022-12-19T15:04:51.622Z,100779.94
2022-12-19T15:07:06.901Z,100768.59
2022-12-19T15:11:09.504Z,100775.69
2022-12-19T15:14:48.757Z,100770.53
2022-12-19T15:15:38.994Z,100766.31
2022-12-19T15:18:20.121Z,100765.53
2022-12-19T15:20:46.790Z,100764.75
2022-12-19T15:23:18.175Z,100757.03
2022-12-19T15:26:06.123Z,100762.38
2022-12-19T15:28:51.173Z,100744.91
2022-12-19T15:31:34.432Z,100752.88
2022-12-19T15:34:35.426Z,100750.22
2022-12-19T15:37:04.323Z,100742.38
2022-12-19T15:39:30.963Z,100743.44
2022-12-19T15:42:00.243Z,100745.56
2022-12-19T15:44:37.865Z,100746.97
2022-12-19T15:47:19.770Z,100747.38
2022-12-19T15:49:47.310Z,100746.63
2022-12-19T15:52:19.157Z,100737.06
2022-12-19T15:54:48.786Z,100740.63
2022-12-19T15:57:36.404Z,100743.22
2022-12-19T16:00:07.761Z,100734.31
2022-12-19T16:03:13.309Z,100732.44
2022-12-19T16:05:23.224Z,100731.47
2022-12-19T16:07:49.890Z,100730.53
2022-12-19T16:10:17.386Z,100733.97
2022-12-19T16:12:52.973Z,100735.69
2022-12-19T16:15:27.803Z,100734.75
2022-12-19T16:17:55.519Z,100725.00
2022-12-19T16:20:28.234Z,100733.69
2022-12-19T16:22:55.671Z,100716.91
2022-12-19T16:25:24.972Z,100723.84
2022-12-19T16:27:56.885Z,100718.53
2022-12-19T16:30:27.967Z,100727.25
2022-12-19T16:32:54.513Z,100717.56
2022-12-19T16:35:54.949Z,100709.69
2022-12-19T16:38:10.421Z,100703.59
2022-12-19T16:40:37.602Z,100711.41
2022-12-19T16:43:13.076Z,100700.88
2022-12-19T16:45:40.311Z,100714.03
2022-12-19T16:48:24.802Z,100723.63
2022-12-19T16:50:51.641Z,100709.56
2022-12-19T16:53:21.307Z,100717.47
2022-12-19T16:55:50.090Z,100705.94
2022-12-19T16:58:21.600Z,100705.03
2022-12-19T17:00:51.236Z,100713.69
2022-12-19T17:03:33.583Z,100718.00
2022-12-19T17:06:01.064Z,100723.16
2022-12-19T17:08:27.955Z,100711.75
2022-12-19T17:10:54.563Z,100722.28
2022-12-19T17:13:22.257Z,100714.34
2022-12-19T17:15:56.040Z,100708.97
2022-12-19T17:18:34.688Z,100708.16
2022-12-19T17:21:01.811Z,100702.03
2022-12-19T17:23:31.035Z,100695.06
2022-12-19T17:25:59.425Z,100684.56
2022-12-19T17:28:27.278Z,100700.38
2022-12-19T17:30:57.493Z,100696.06
2022-12-19T17:33:35.369Z,100699.63
2022-12-19T17:36:02.772Z,100699.66
2022-12-19T17:38:29.319Z,100692.66
2022-12-19T17:40:56.251Z,100690.06
2022-12-19T17:43:22.971Z,100692.69
2022-12-19T17:45:51.177Z,100696.28
2022-12-19T17:48:29.549Z,100693.66
2022-12-19T17:50:56.832Z,100691.97
2022-12-19T17:53:23.600Z,100685.91
2022-12-19T17:55:51.160Z,100684.22
2022-12-19T17:58:17.969Z,100691.25
2022-12-19T18:00:46.950Z,100689.50
2022-12-19T18:03:25.338Z,100696.50
2022-12-19T18:05:55.796Z,100703.53
2022-12-19T18:08:28.236Z,100702.63
2022-12-19T18:10:57.028Z,100697.31
2022-12-19T18:13:27.847Z,100708.66
2022-12-19T18:16:00.091Z,100707.69
2022-12-19T18:18:33.780Z,100719.84
2022-12-19T18:21:01.193Z,100707.47
2022-12-19T18:23:30.292Z,100705.59
2022-12-19T18:26:01.442Z,100708.97
2022-12-19T18:28:29.095Z,100706.28
2022-12-19T18:31:01.245Z,100705.31
2022-12-19T18:33:33.300Z,100699.09
2022-12-19T18:36:00.310Z,100692.00
2022-12-19T18:38:27.285Z,100701.66
2022-12-19T18:40:53.931Z,100694.63
2022-12-19T18:43:20.512Z,100692.94
2022-12-19T18:45:50.612Z,100699.13
2022-12-19T18:48:26.530Z,100702.75
2022-12-19T18:50:58.041Z,100694.06
2022-12-19T18:53:34.507Z,100695.03
2022-12-19T18:56:03.047Z,100690.72
2022-12-19T18:58:30.234Z,100695.22
2022-12-19T19:00:59.687Z,100704.06
2022-12-19T19:03:30.334Z,100704.13
2022-12-19T19:05:58.134Z,100699.84
2022-12-19T19:08:28.074Z,100705.13
2022-12-19T19:11:06.336Z,100708.78
2022-12-19T19:13:32.893Z,100715.88
2022-12-19T19:16:02.595Z,100724.72
2022-12-19T19:18:38.912Z,100730.94
2022-12-19T19:21:09.920Z,100718.59
2022-12-19T19:23:40.535Z,100718.69
2022-12-19T19:26:07.162Z,100717.81
2022-12-19T19:28:33.773Z,100715.22
2022-12-19T19:31:01.450Z,100716.13
2022-12-19T19:33:35.663Z,100732.88
2022-12-19T19:36:12.011Z,100719.72
2022-12-19T19:38:43.132Z,100723.28
2022-12-19T19:41:09.806Z,100719.75
2022-12-19T19:43:37.100Z,100732.06
2022-12-19T19:46:04.152Z,100731.22
2022-12-19T19:48:31.597Z,100737.41
2022-12-19T19:50:59.011Z,100738.22
2022-12-19T19:53:25.926Z,100725.03
2022-12-19T19:55:56.786Z,100725.91
2022-12-19T19:58:23.856Z,100736.44
2022-12-19T20:00:50.516Z,100729.47
2022-12-19T20:03:22.576Z,100730.41
2022-12-19T20:05:50.469Z,100738.34
2022-12-19T20:08:17.039Z,100734.81
2022-12-19T20:10:43.682Z,100727.81
2022-12-19T20:13:11.171Z,100716.38
2022-12-19T20:15:40.769Z,100719.00
2022-12-19T20:18:11.146Z,100714.59
2022-12-19T20:20:37.702Z,100711.97
2022-12-19T20:23:05.949Z,100697.94
2022-12-19T20:25:35.032Z,100709.38
2022-12-19T20:28:02.811Z,100699.72
2022-12-19T20:30:29.627Z,100701.47
2022-12-19T20:32:56.267Z,100705.84
2022-12-19T20:35:23.654Z,100697.03
2022-12-19T20:37:50.326Z,100694.47
2022-12-19T20:40:16.950Z,100692.66
2022-12-19T20:42:43.843Z,100700.56
2022-12-19T20:45:11.116Z,100696.16
2022-12-19T20:47:37.807Z,100704.09
2022-12-19T20:50:05.131Z,100704.06
2022-12-19T20:52:31.696Z,100708.44
2022-12-19T20:54:58.276Z,100705.78
2022-12-19T20:57:24.911Z,100698.72
2022-12-19T20:59:51.701Z,100718.06
2022-12-19T21:02:19.493Z,100718.94
2022-12-19T21:04:46.726Z,100712.75
2022-12-19T21:07:13.607Z,100719.75
2022-12-19T21:09:44.784Z,100711.84
2022-12-19T21:12:11.988Z,100707.50
2022-12-19T21:14:38.805Z,100699.63
2022-12-19T21:17:05.351Z,100699.72
2022-12-19T21:19:32.495Z,100698.00
2022-12-19T21:21:59.496Z,100714.75
2022-12-19T21:24:26.136Z,100720.94
2022-12-19T21:26:57.784Z,100718.31
2022-12-19T21:29:25.036Z,100719.25
2022-12-19T21:31:52.474Z,100708.69
2022-12-19T21:34:19.189Z,100713.06
2022-12-19T21:36:45.902Z,100719.22
2022-12-19T21:39:13.067Z,100720.03
2022-12-19T21:41:39.703Z,100725.28
2022-12-19T21:44:06.390Z,100716.50
2022-12-19T21:46:33.769Z,100714.72
2022-12-19T21:49:01.190Z,100717.34
2022-12-19T21:51:29.850Z,100714.72
2022-12-19T21:54:01.995Z,100714.72
2022-12-19T21:56:31.359Z,100717.31
2022-12-19T21:59:01.778Z,100711.03
2022-12-19T22:01:30.347Z,100725.84
2022-12-19T22:04:01.971Z,100711.63
2022-12-19T22:06:32.086Z,100714.22
2022-12-19T22:09:00.453Z,100720.25
2022-12-19T22:11:28.544Z,100721.09
2022-12-19T22:13:55.624Z,100719.25
2022-12-19T22:16:22.520Z,100720.13
2022-12-19T22:18:51.552Z,100720.94
2022-12-19T22:21:19.836Z,100735.75
2022-12-19T22:23:47.180Z,100722.56
2022-12-19T22:26:16.844Z,100719.75
2022-12-19T22:28:45.782Z,100709.16
2022-12-19T22:31:27.989Z,100710.84
2022-12-19T22:33:57.031Z,100709.09
2022-12-19T22:36:28.270Z,100699.34
2022-12-19T22:38:56.891Z,100700.16
2022-12-19T22:41:23.439Z,100708.91
2022-12-19T22:43:52.840Z,100698.31
2022-12-19T22:46:28.548Z,100700.00
2022-12-19T22:48:57.478Z,100695.53
2022-12-19T22:51:24.649Z,100704.28
2022-12-19T22:53:51.446Z,100698.97
2022-12-19T22:56:24.205Z,100698.06
2022-12-19T22:58:52.530Z,100690.16
2022-12-19T23:01:24.117Z,100691.91
2022-12-19T23:03:53.637Z,100680.41
2022-12-19T23:06:21.066Z,100684.75
2022-12-19T23:08:48.210Z,100668.94
2022-12-19T23:11:21.774Z,100674.19
2022-12-19T23:13:49.677Z,100667.09
2022-12-19T23:16:16.991Z,100662.72
2022-12-19T23:18:44.221Z,100655.66
2022-12-19T23:21:19.820Z,100672.28
2022-12-19T23:23:48.338Z,100652.03
2022-12-19T23:26:22.307Z,100656.44
2022-12-19T23:28:57.870Z,100657.25
2022-12-19T23:31:25.311Z,100676.53
2022-12-19T23:33:52.039Z,100679.19
2022-12-19T23:36:38.008Z,100670.41
2022-12-19T23:39:05.677Z,100676.53
2022-12-19T23:41:32.237Z,100662.47
2022-12-19T23:43:58.952Z,100657.16
2022-12-19T23:46:27.268Z,100657.94
2022-12-19T23:48:54.267Z,100661.41
2022-12-19T23:51:24.633Z,100661.44
2022-12-19T23:53:52.041Z,100665.84
2022-12-19T23:56:24.625Z,100667.56
2022-12-19T23:58:51.251Z,100664.06
